sensor_id;sensor_type;location;lat;lon;timestamp;temperature;humidity
18105;DHT22;9179;50.968;3.134;2022-08-20T00:00:54;17.40;99.90
18105;DHT22;9179;50.968;3.134;2022-08-20T00:03:26;17.40;99.90
18105;DHT22;9179;50.968;3.134;2022-08-20T00:05:55;17.30;99.90
18105;DHT22;9179;50.968;3.134;2022-08-20T00:08:23;17.30;99.90
18105;DHT22;9179;50.968;3.134;2022-08-20T00:10:51;17.30;99.90
18105;DHT22;9179;50.968;3.134;2022-08-20T00:13:22;17.30;99.90
18105;DHT22;9179;50.968;3.134;2022-08-20T00:15:50;17.30;99.90
18105;DHT22;9179;50.968;3.134;2022-08-20T00:18:17;17.20;99.90
18105;DHT22;9179;50.968;3.134;2022-08-20T00:20:46;17.20;99.90
18105;DHT22;9179;50.968;3.134;2022-08-20T00:23:14;17.10;99.90
18105;DHT22;9179;50.968;3.134;2022-08-20T00:25:41;17.10;99.90
18105;DHT22;9179;50.968;3.134;2022-08-20T00:28:09;17.10;99.90
18105;DHT22;9179;50.968;3.134;2022-08-20T00:30:40;17.10;99.90
18105;DHT22;9179;50.968;3.134;2022-08-20T00:33:11;17.00;99.90
18105;DHT22;9179;50.968;3.134;2022-08-20T00:35:41;17.00;99.90
18105;DHT22;9179;50.968;3.134;2022-08-20T00:38:09;17.00;99.90
18105;DHT22;9179;50.968;3.134;2022-08-20T00:40:38;17.00;99.90
18105;DHT22;9179;50.968;3.134;2022-08-20T00:43:12;16.90;99.90
18105;DHT22;9179;50.968;3.134;2022-08-20T00:45:50;16.90;99.90
18105;DHT22;9179;50.968;3.134;2022-08-20T00:48:21;16.90;99.90
18105;DHT22;9179;50.968;3.134;2022-08-20T00:50:48;16.90;99.90
18105;DHT22;9179;50.968;3.134;2022-08-20T00:53:24;16.80;99.90
18105;DHT22;9179;50.968;3.134;2022-08-20T00:55:53;16.80;99.90
18105;DHT22;9179;50.968;3.134;2022-08-20T00:58:20;16.80;99.90
18105;DHT22;9179;50.968;3.134;2022-08-20T01:00:49;16.80;99.90
18105;DHT22;9179;50.968;3.134;2022-08-20T01:03:18;16.80;99.90
18105;DHT22;9179;50.968;3.134;2022-08-20T01:05:48;16.80;99.90
18105;DHT22;9179;50.968;3.134;2022-08-20T01:08:18;16.70;99.90
18105;DHT22;9179;50.968;3.134;2022-08-20T01:10:47;16.70;99.90
18105;DHT22;9179;50.968;3.134;2022-08-20T01:13:18;16.70;99.90
18105;DHT22;9179;50.968;3.134;2022-08-20T01:15:47;16.70;99.90
18105;DHT22;9179;50.968;3.134;2022-08-20T01:18:19;16.70;99.90
18105;DHT22;9179;50.968;3.134;2022-08-20T01:20:49;16.60;99.90
18105;DHT22;9179;50.968;3.134;2022-08-20T01:23:20;16.60;99.90
18105;DHT22;9179;50.968;3.134;2022-08-20T01:26:02;16.60;99.90
18105;DHT22;9179;50.968;3.134;2022-08-20T01:28:37;16.60;99.90
18105;DHT22;9179;50.968;3.134;2022-08-20T01:31:05;16.50;99.90
18105;DHT22;9179;50.968;3.134;2022-08-20T01:33:33;16.60;99.90
18105;DHT22;9179;50.968;3.134;2022-08-20T01:36:00;16.50;99.90
18105;DHT22;9179;50.968;3.134;2022-08-20T01:38:28;16.40;99.90
18105;DHT22;9179;50.968;3.134;2022-08-20T01:41:17;16.40;99.90
18105;DHT22;9179;50.968;3.134;2022-08-20T01:43:48;16.40;99.90
18105;DHT22;9179;50.968;3.134;2022-08-20T01:46:23;16.40;99.90
18105;DHT22;9179;50.968;3.134;2022-08-20T01:48:54;16.30;99.90
18105;DHT22;9179;50.968;3.134;2022-08-20T01:51:24;16.30;99.90
18105;DHT22;9179;50.968;3.134;2022-08-20T01:53:54;16.30;99.90
18105;DHT22;9179;50.968;3.134;2022-08-20T01:56:24;16.30;99.90
18105;DHT22;9179;50.968;3.134;2022-08-20T01:58:54;16.20;99.90
18105;DHT22;9179;50.968;3.134;2022-08-20T02:01:23;16.20;99.90
18105;DHT22;9179;50.968;3.134;2022-08-20T02:03:52;16.20;99.90
18105;DHT22;9179;50.968;3.134;2022-08-20T02:06:20;16.20;99.90
18105;DHT22;9179;50.968;3.134;2022-08-20T02:08:51;16.20;99.90
18105;DHT22;9179;50.968;3.134;2022-08-20T02:11:18;16.20;99.90
18105;DHT22;9179;50.968;3.134;2022-08-20T02:13:47;16.20;99.90
18105;DHT22;9179;50.968;3.134;2022-08-20T02:16:18;16.10;99.90
18105;DHT22;9179;50.968;3.134;2022-08-20T02:18:45;16.10;99.90
18105;DHT22;9179;50.968;3.134;2022-08-20T02:21:12;16.10;99.90
18105;DHT22;9179;50.968;3.134;2022-08-20T02:23:39;16.10;99.90
18105;DHT22;9179;50.968;3.134;2022-08-20T02:26:06;16.10;99.90
18105;DHT22;9179;50.968;3.134;2022-08-20T02:28:34;16.10;99.90
18105;DHT22;9179;50.968;3.134;2022-08-20T02:31:02;16.00;99.90
18105;DHT22;9179;50.968;3.134;2022-08-20T02:33:33;16.10;99.90
18105;DHT22;9179;50.968;3.134;2022-08-20T02:36:00;16.00;99.90
18105;DHT22;9179;50.968;3.134;2022-08-20T02:38:27;16.00;99.90
18105;DHT22;9179;50.968;3.134;2022-08-20T02:40:54;16.00;99.90
18105;DHT22;9179;50.968;3.134;2022-08-20T02:43:21;16.00;99.90
18105;DHT22;9179;50.968;3.134;2022-08-20T02:45:48;16.00;99.90
18105;DHT22;9179;50.968;3.134;2022-08-20T02:48:19;15.90;99.90
18105;DHT22;9179;50.968;3.134;2022-08-20T02:50:49;15.90;99.90
18105;DHT22;9179;50.968;3.134;2022-08-20T02:53:16;15.90;99.90
18105;DHT22;9179;50.968;3.134;2022-08-20T02:55:43;15.90;99.90
18105;DHT22;9179;50.968;3.134;2022-08-20T02:58:10;15.90;99.90
18105;DHT22;9179;50.968;3.134;2022-08-20T03:00:38;15.90;99.90
18105;DHT22;9179;50.968;3.134;2022-08-20T03:03:05;15.90;99.90
18105;DHT22;9179;50.968;3.134;2022-08-20T03:05:35;15.80;99.90
18105;DHT22;9179;50.968;3.134;2022-08-20T03:08:04;15.80;99.90
18105;DHT22;9179;50.968;3.134;2022-08-20T03:10:33;15.80;99.90
18105;DHT22;9179;50.968;3.134;2022-08-20T03:13:01;15.80;99.90
18105;DHT22;9179;50.968;3.134;2022-08-20T03:15:28;15.80;99.90
18105;DHT22;9179;50.968;3.134;2022-08-20T03:17:55;15.80;99.90
18105;DHT22;9179;50.968;3.134;2022-08-20T03:20:24;15.80;99.90
18105;DHT22;9179;50.968;3.134;2022-08-20T03:22:52;15.70;99.90
18105;DHT22;9179;50.968;3.134;2022-08-20T03:25:20;15.70;99.90
18105;DHT22;9179;50.968;3.134;2022-08-20T03:27:47;15.70;99.90
18105;DHT22;9179;50.968;3.134;2022-08-20T03:30:15;15.70;99.90
18105;DHT22;9179;50.968;3.134;2022-08-20T03:32:43;15.70;99.90
18105;DHT22;9179;50.968;3.134;2022-08-20T03:35:12;15.70;99.90
18105;DHT22;9179;50.968;3.134;2022-08-20T03:37:39;15.70;99.90
18105;DHT22;9179;50.968;3.134;2022-08-20T03:40:11;15.70;99.90
18105;DHT22;9179;50.968;3.134;2022-08-20T03:42:38;15.70;99.90
18105;DHT22;9179;50.968;3.134;2022-08-20T03:45:07;15.70;99.90
18105;DHT22;9179;50.968;3.134;2022-08-20T03:47:34;15.70;99.90
18105;DHT22;9179;50.968;3.134;2022-08-20T03:50:03;15.70;99.90
18105;DHT22;9179;50.968;3.134;2022-08-20T03:52:30;15.70;99.90
18105;DHT22;9179;50.968;3.134;2022-08-20T03:54:57;15.70;99.90
18105;DHT22;9179;50.968;3.134;2022-08-20T03:57:25;15.70;99.90
18105;DHT22;9179;50.968;3.134;2022-08-20T03:59:53;15.70;99.90
18105;DHT22;9179;50.968;3.134;2022-08-20T04:02:20;15.70;99.90
18105;DHT22;9179;50.968;3.134;2022-08-20T04:04:47;15.60;99.90
18105;DHT22;9179;50.968;3.134;2022-08-20T04:07:16;15.60;99.90
18105;DHT22;9179;50.968;3.134;2022-08-20T04:09:43;15.60;99.90
18105;DHT22;9179;50.968;3.134;2022-08-20T04:12:10;15.60;99.90
18105;DHT22;9179;50.968;3.134;2022-08-20T04:14:39;15.50;99.90
18105;DHT22;9179;50.968;3.134;2022-08-20T04:17:07;15.50;99.90
18105;DHT22;9179;50.968;3.134;2022-08-20T04:19:35;15.50;99.90
18105;DHT22;9179;50.968;3.134;2022-08-20T04:22:03;15.50;99.90
18105;DHT22;9179;50.968;3.134;2022-08-20T04:24:30;15.50;99.90
18105;DHT22;9179;50.968;3.134;2022-08-20T04:26:57;15.50;99.90
18105;DHT22;9179;50.968;3.134;2022-08-20T04:29:24;15.40;99.90
18105;DHT22;9179;50.968;3.134;2022-08-20T04:31:53;15.40;99.90
18105;DHT22;9179;50.968;3.134;2022-08-20T04:34:20;15.30;99.90
18105;DHT22;9179;50.968;3.134;2022-08-20T04:36:47;15.30;99.90
18105;DHT22;9179;50.968;3.134;2022-08-20T04:39:14;15.30;99.90
18105;DHT22;9179;50.968;3.134;2022-08-20T04:41:41;15.20;99.90
18105;DHT22;9179;50.968;3.134;2022-08-20T04:44:10;15.20;99.90
18105;DHT22;9179;50.968;3.134;2022-08-20T04:46:37;15.30;99.90
18105;DHT22;9179;50.968;3.134;2022-08-20T04:49:06;15.30;99.90
18105;DHT22;9179;50.968;3.134;2022-08-20T04:51:33;15.30;99.90
18105;DHT22;9179;50.968;3.134;2022-08-20T04:54:00;15.30;99.90
18105;DHT22;9179;50.968;3.134;2022-08-20T04:56:30;15.30;99.90
18105;DHT22;9179;50.968;3.134;2022-08-20T04:59:04;15.30;99.90
18105;DHT22;9179;50.968;3.134;2022-08-20T05:01:32;15.40;99.90
18105;DHT22;9179;50.968;3.134;2022-08-20T05:03:58;15.40;99.90
18105;DHT22;9179;50.968;3.134;2022-08-20T05:06:29;15.50;99.90
18105;DHT22;9179;50.968;3.134;2022-08-20T05:08:57;15.50;99.90
18105;DHT22;9179;50.968;3.134;2022-08-20T05:11:25;15.60;99.90
18105;DHT22;9179;50.968;3.134;2022-08-20T05:13:52;15.70;99.90
18105;DHT22;9179;50.968;3.134;2022-08-20T05:16:20;15.90;99.90
18105;DHT22;9179;50.968;3.134;2022-08-20T05:18:48;16.00;99.90
18105;DHT22;9179;50.968;3.134;2022-08-20T05:21:16;16.20;99.90
18105;DHT22;9179;50.968;3.134;2022-08-20T05:23:45;16.40;99.90
18105;DHT22;9179;50.968;3.134;2022-08-20T05:26:12;16.60;99.90
18105;DHT22;9179;50.968;3.134;2022-08-20T05:28:41;16.90;99.90
18105;DHT22;9179;50.968;3.134;2022-08-20T05:31:08;17.40;99.90
18105;DHT22;9179;50.968;3.134;2022-08-20T05:33:36;17.80;99.90
18105;DHT22;9179;50.968;3.134;2022-08-20T05:36:04;18.30;99.90
18105;DHT22;9179;50.968;3.134;2022-08-20T05:38:32;18.70;99.90
18105;DHT22;9179;50.968;3.134;2022-08-20T05:41:02;19.00;99.90
18105;DHT22;9179;50.968;3.134;2022-08-20T05:43:29;19.30;99.90
18105;DHT22;9179;50.968;3.134;2022-08-20T05:45:58;19.70;99.90
18105;DHT22;9179;50.968;3.134;2022-08-20T05:48:26;20.20;99.90
18105;DHT22;9179;50.968;3.134;2022-08-20T05:50:53;20.50;99.90
18105;DHT22;9179;50.968;3.134;2022-08-20T05:53:23;20.80;99.90
18105;DHT22;9179;50.968;3.134;2022-08-20T05:55:50;21.20;99.90
18105;DHT22;9179;50.968;3.134;2022-08-20T05:58:21;21.80;99.90
18105;DHT22;9179;50.968;3.134;2022-08-20T06:00:49;22.10;99.90
18105;DHT22;9179;50.968;3.134;2022-08-20T06:03:16;22.40;99.90
18105;DHT22;9179;50.968;3.134;2022-08-20T06:06:01;22.80;99.90
18105;DHT22;9179;50.968;3.134;2022-08-20T06:08:28;23.70;99.90
18105;DHT22;9179;50.968;3.134;2022-08-20T06:10:55;24.60;99.90
18105;DHT22;9179;50.968;3.134;2022-08-20T06:13:24;25.50;99.90
18105;DHT22;9179;50.968;3.134;2022-08-20T06:15:51;25.70;99.90
18105;DHT22;9179;50.968;3.134;2022-08-20T06:18:18;25.90;99.90
18105;DHT22;9179;50.968;3.134;2022-08-20T06:20:45;25.90;99.90
18105;DHT22;9179;50.968;3.134;2022-08-20T06:23:12;25.70;99.90
18105;DHT22;9179;50.968;3.134;2022-08-20T06:25:38;25.40;99.90
18105;DHT22;9179;50.968;3.134;2022-08-20T06:28:05;24.40;99.90
18105;DHT22;9179;50.968;3.134;2022-08-20T06:30:34;24.40;99.90
18105;DHT22;9179;50.968;3.134;2022-08-20T06:33:01;24.60;99.90
18105;DHT22;9179;50.968;3.134;2022-08-20T06:35:29;25.00;99.90
18105;DHT22;9179;50.968;3.134;2022-08-20T06:37:56;25.90;99.90
18105;DHT22;9179;50.968;3.134;2022-08-20T06:40:26;26.40;99.90
18105;DHT22;9179;50.968;3.134;2022-08-20T06:42:54;26.70;99.90
18105;DHT22;9179;50.968;3.134;2022-08-20T06:45:24;27.60;99.90
18105;DHT22;9179;50.968;3.134;2022-08-20T06:47:53;28.40;99.90
18105;DHT22;9179;50.968;3.134;2022-08-20T06:50:23;28.50;99.90
18105;DHT22;9179;50.968;3.134;2022-08-20T06:52:51;28.00;99.90
18105;DHT22;9179;50.968;3.134;2022-08-20T06:55:18;26.80;99.90
18105;DHT22;9179;50.968;3.134;2022-08-20T06:57:45;25.70;99.90
18105;DHT22;9179;50.968;3.134;2022-08-20T07:00:15;24.60;99.90
18105;DHT22;9179;50.968;3.134;2022-08-20T07:02:42;23.90;99.90
18105;DHT22;9179;50.968;3.134;2022-08-20T07:05:13;23.20;99.90
18105;DHT22;9179;50.968;3.134;2022-08-20T07:07:44;23.30;99.90
18105;DHT22;9179;50.968;3.134;2022-08-20T07:10:12;24.70;99.90
18105;DHT22;9179;50.968;3.134;2022-08-20T07:12:39;25.30;99.90
18105;DHT22;9179;50.968;3.134;2022-08-20T07:15:09;25.60;99.90
18105;DHT22;9179;50.968;3.134;2022-08-20T07:17:37;26.20;99.90
18105;DHT22;9179;50.968;3.134;2022-08-20T07:20:04;27.30;99.90
18105;DHT22;9179;50.968;3.134;2022-08-20T07:22:33;27.90;99.90
18105;DHT22;9179;50.968;3.134;2022-08-20T07:25:02;27.80;99.90
18105;DHT22;9179;50.968;3.134;2022-08-20T07:27:29;27.70;99.90
18105;DHT22;9179;50.968;3.134;2022-08-20T07:29:56;28.00;99.90
18105;DHT22;9179;50.968;3.134;2022-08-20T07:32:42;28.40;99.90
18105;DHT22;9179;50.968;3.134;2022-08-20T07:35:12;28.50;99.90
18105;DHT22;9179;50.968;3.134;2022-08-20T07:37:42;29.00;99.90
18105;DHT22;9179;50.968;3.134;2022-08-20T07:40:13;29.70;99.90
18105;DHT22;9179;50.968;3.134;2022-08-20T07:42:40;29.50;99.90
18105;DHT22;9179;50.968;3.134;2022-08-20T07:45:09;29.20;99.50
18105;DHT22;9179;50.968;3.134;2022-08-20T07:47:37;29.30;99.30
18105;DHT22;9179;50.968;3.134;2022-08-20T07:50:06;28.90;98.30
18105;DHT22;9179;50.968;3.134;2022-08-20T07:52:34;28.70;97.90
18105;DHT22;9179;50.968;3.134;2022-08-20T07:55:04;29.40;98.20
18105;DHT22;9179;50.968;3.134;2022-08-20T07:57:31;30.20;95.90
18105;DHT22;9179;50.968;3.134;2022-08-20T07:59:58;30.20;95.70
18105;DHT22;9179;50.968;3.134;2022-08-20T08:02:25;31.10;94.50
18105;DHT22;9179;50.968;3.134;2022-08-20T08:04:52;31.00;93.30
18105;DHT22;9179;50.968;3.134;2022-08-20T08:07:19;31.00;92.40
18105;DHT22;9179;50.968;3.134;2022-08-20T08:09:47;31.10;91.80
18105;DHT22;9179;50.968;3.134;2022-08-20T08:12:16;31.50;90.80
18105;DHT22;9179;50.968;3.134;2022-08-20T08:14:45;30.90;90.60
18105;DHT22;9179;50.968;3.134;2022-08-20T08:17:12;31.40;87.90
18105;DHT22;9179;50.968;3.134;2022-08-20T08:19:43;30.50;88.20
18105;DHT22;9179;50.968;3.134;2022-08-20T08:22:13;30.00;89.00
18105;DHT22;9179;50.968;3.134;2022-08-20T08:24:42;30.20;86.90
18105;DHT22;9179;50.968;3.134;2022-08-20T08:27:10;30.50;87.30
18105;DHT22;9179;50.968;3.134;2022-08-20T08:29:38;31.30;84.80
18105;DHT22;9179;50.968;3.134;2022-08-20T08:32:06;31.90;82.80
18105;DHT22;9179;50.968;3.134;2022-08-20T08:34:34;31.70;82.30
18105;DHT22;9179;50.968;3.134;2022-08-20T08:37:02;31.70;80.40
18105;DHT22;9179;50.968;3.134;2022-08-20T08:39:30;31.80;78.10
18105;DHT22;9179;50.968;3.134;2022-08-20T08:41:58;32.00;74.50
18105;DHT22;9179;50.968;3.134;2022-08-20T08:44:30;31.30;73.20
18105;DHT22;9179;50.968;3.134;2022-08-20T08:47:06;30.80;74.20
18105;DHT22;9179;50.968;3.134;2022-08-20T08:49:38;30.80;74.60
18105;DHT22;9179;50.968;3.134;2022-08-20T08:52:09;30.90;75.70
18105;DHT22;9179;50.968;3.134;2022-08-20T08:54:43;30.80;74.30
18105;DHT22;9179;50.968;3.134;2022-08-20T08:57:11;31.40;74.50
18105;DHT22;9179;50.968;3.134;2022-08-20T08:59:38;31.80;74.60
18105;DHT22;9179;50.968;3.134;2022-08-20T09:02:07;31.90;73.20
18105;DHT22;9179;50.968;3.134;2022-08-20T09:04:43;32.20;71.80
18105;DHT22;9179;50.968;3.134;2022-08-20T09:07:13;31.00;72.70
18105;DHT22;9179;50.968;3.134;2022-08-20T09:09:44;31.20;73.50
18105;DHT22;9179;50.968;3.134;2022-08-20T09:12:15;31.30;72.60
18105;DHT22;9179;50.968;3.134;2022-08-20T09:14:44;31.60;71.80
18105;DHT22;9179;50.968;3.134;2022-08-20T09:17:14;31.80;72.10
18105;DHT22;9179;50.968;3.134;2022-08-20T09:19:41;32.00;69.50
18105;DHT22;9179;50.968;3.134;2022-08-20T09:22:09;30.70;69.30
18105;DHT22;9179;50.968;3.134;2022-08-20T09:24:36;29.40;74.30
18105;DHT22;9179;50.968;3.134;2022-08-20T09:27:04;30.90;75.50
18105;DHT22;9179;50.968;3.134;2022-08-20T09:29:31;32.60;73.30
18105;DHT22;9179;50.968;3.134;2022-08-20T09:32:05;33.20;68.80
18105;DHT22;9179;50.968;3.134;2022-08-20T09:34:36;32.70;66.70
18105;DHT22;9179;50.968;3.134;2022-08-20T09:37:03;30.90;67.70
18105;DHT22;9179;50.968;3.134;2022-08-20T09:39:30;29.00;70.80
18105;DHT22;9179;50.968;3.134;2022-08-20T09:42:06;28.00;73.60
18105;DHT22;9179;50.968;3.134;2022-08-20T09:44:33;29.40;71.90
18105;DHT22;9179;50.968;3.134;2022-08-20T09:47:00;30.80;70.20
18105;DHT22;9179;50.968;3.134;2022-08-20T09:49:27;30.10;68.80
18105;DHT22;9179;50.968;3.134;2022-08-20T09:51:55;28.90;71.00
18105;DHT22;9179;50.968;3.134;2022-08-20T09:54:23;29.70;72.50
18105;DHT22;9179;50.968;3.134;2022-08-20T09:56:52;31.50;70.30
18105;DHT22;9179;50.968;3.134;2022-08-20T09:59:19;33.30;67.20
18105;DHT22;9179;50.968;3.134;2022-08-20T10:01:46;34.50;62.10
18105;DHT22;9179;50.968;3.134;2022-08-20T10:04:13;35.40;59.80
18105;DHT22;9179;50.968;3.134;2022-08-20T10:06:40;36.30;58.90
18105;DHT22;9179;50.968;3.134;2022-08-20T10:09:09;36.50;57.50
18105;DHT22;9179;50.968;3.134;2022-08-20T10:11:36;34.50;56.80
18105;DHT22;9179;50.968;3.134;2022-08-20T10:14:03;32.00;60.00
18105;DHT22;9179;50.968;3.134;2022-08-20T10:16:30;30.60;63.20
18105;DHT22;9179;50.968;3.134;2022-08-20T10:18:57;29.50;66.40
18105;DHT22;9179;50.968;3.134;2022-08-20T10:21:24;29.10;68.30
18105;DHT22;9179;50.968;3.134;2022-08-20T10:23:50;29.00;69.50
18105;DHT22;9179;50.968;3.134;2022-08-20T10:26:19;28.60;70.20
18105;DHT22;9179;50.968;3.134;2022-08-20T10:28:46;28.60;71.30
18105;DHT22;9179;50.968;3.134;2022-08-20T10:31:12;28.90;71.80
18105;DHT22;9179;50.968;3.134;2022-08-20T10:33:40;29.00;72.60
18105;DHT22;9179;50.968;3.134;2022-08-20T10:36:09;30.40;71.30
18105;DHT22;9179;50.968;3.134;2022-08-20T10:38:36;30.50;69.20
18105;DHT22;9179;50.968;3.134;2022-08-20T10:41:04;30.50;69.90
18105;DHT22;9179;50.968;3.134;2022-08-20T10:43:32;30.80;68.20
18105;DHT22;9179;50.968;3.134;2022-08-20T10:45:59;30.90;68.00
18105;DHT22;9179;50.968;3.134;2022-08-20T10:48:27;29.90;68.10
18105;DHT22;9179;50.968;3.134;2022-08-20T10:50:53;30.10;69.10
18105;DHT22;9179;50.968;3.134;2022-08-20T10:53:20;30.40;68.90
18105;DHT22;9179;50.968;3.134;2022-08-20T10:55:47;30.40;68.10
18105;DHT22;9179;50.968;3.134;2022-08-20T10:58:14;29.70;68.70
18105;DHT22;9179;50.968;3.134;2022-08-20T11:00:42;30.30;69.80
18105;DHT22;9179;50.968;3.134;2022-08-20T11:03:10;31.20;67.20
18105;DHT22;9179;50.968;3.134;2022-08-20T11:05:37;31.20;66.50
18105;DHT22;9179;50.968;3.134;2022-08-20T11:08:04;30.70;65.90
18105;DHT22;9179;50.968;3.134;2022-08-20T11:10:33;31.90;65.50
18105;DHT22;9179;50.968;3.134;2022-08-20T11:13:03;33.90;63.40
18105;DHT22;9179;50.968;3.134;2022-08-20T11:15:31;35.50;60.30
18105;DHT22;9179;50.968;3.134;2022-08-20T11:18:01;34.60;59.20
18105;DHT22;9179;50.968;3.134;2022-08-20T11:20:28;33.20;59.80
18105;DHT22;9179;50.968;3.134;2022-08-20T11:22:57;31.90;62.00
18105;DHT22;9179;50.968;3.134;2022-08-20T11:25:24;30.90;63.20
18105;DHT22;9179;50.968;3.134;2022-08-20T11:27:53;31.70;64.80
18105;DHT22;9179;50.968;3.134;2022-08-20T11:30:22;33.60;62.70
18105;DHT22;9179;50.968;3.134;2022-08-20T11:32:49;33.70;59.90
18105;DHT22;9179;50.968;3.134;2022-08-20T11:35:18;32.20;60.00
18105;DHT22;9179;50.968;3.134;2022-08-20T11:37:46;30.70;62.30
18105;DHT22;9179;50.968;3.134;2022-08-20T11:40:13;30.50;64.00
18105;DHT22;9179;50.968;3.134;2022-08-20T11:42:40;30.20;64.00
18105;DHT22;9179;50.968;3.134;2022-08-20T11:45:07;31.00;64.00
18105;DHT22;9179;50.968;3.134;2022-08-20T11:47:35;32.30;61.10
18105;DHT22;9179;50.968;3.134;2022-08-20T11:50:07;33.90;60.00
18105;DHT22;9179;50.968;3.134;2022-08-20T11:52:36;34.00;58.90
18105;DHT22;9179;50.968;3.134;2022-08-20T11:55:04;34.70;59.30
18105;DHT22;9179;50.968;3.134;2022-08-20T11:57:34;34.50;57.90
18105;DHT22;9179;50.968;3.134;2022-08-20T12:00:07;34.10;57.70
18105;DHT22;9179;50.968;3.134;2022-08-20T12:02:35;33.60;57.70
18105;DHT22;9179;50.968;3.134;2022-08-20T12:05:02;33.00;59.00
18105;DHT22;9179;50.968;3.134;2022-08-20T12:07:29;33.00;59.40
18105;DHT22;9179;50.968;3.134;2022-08-20T12:09:57;33.30;58.50
18105;DHT22;9179;50.968;3.134;2022-08-20T12:12:24;32.50;58.50
18105;DHT22;9179;50.968;3.134;2022-08-20T12:14:51;31.50;58.80
18105;DHT22;9179;50.968;3.134;2022-08-20T12:17:21;31.50;60.70
18105;DHT22;9179;50.968;3.134;2022-08-20T12:19:50;32.50;59.80
18105;DHT22;9179;50.968;3.134;2022-08-20T12:22:18;32.80;58.70
18105;DHT22;9179;50.968;3.134;2022-08-20T12:24:45;32.20;58.60
18105;DHT22;9179;50.968;3.134;2022-08-20T12:27:15;32.70;59.60
18105;DHT22;9179;50.968;3.134;2022-08-20T12:29:43;33.90;58.80
18105;DHT22;9179;50.968;3.134;2022-08-20T12:32:10;34.90;57.80
18105;DHT22;9179;50.968;3.134;2022-08-20T12:34:39;35.90;56.80
18105;DHT22;9179;50.968;3.134;2022-08-20T12:37:08;36.60;55.30
18105;DHT22;9179;50.968;3.134;2022-08-20T12:39:37;36.20;54.60
18105;DHT22;9179;50.968;3.134;2022-08-20T12:42:04;36.30;54.60
18105;DHT22;9179;50.968;3.134;2022-08-20T12:44:33;34.80;54.40
18105;DHT22;9179;50.968;3.134;2022-08-20T12:47:08;33.50;55.40
18105;DHT22;9179;50.968;3.134;2022-08-20T12:49:36;31.70;57.50
18105;DHT22;9179;50.968;3.134;2022-08-20T12:52:04;30.90;59.50
18105;DHT22;9179;50.968;3.134;2022-08-20T12:54:31;30.30;59.90
18105;DHT22;9179;50.968;3.134;2022-08-20T12:56:58;30.00;61.60
18105;DHT22;9179;50.968;3.134;2022-08-20T12:59:25;31.10;61.90
18105;DHT22;9179;50.968;3.134;2022-08-20T13:01:53;32.00;60.00
18105;DHT22;9179;50.968;3.134;2022-08-20T13:04:20;31.30;59.80
18105;DHT22;9179;50.968;3.134;2022-08-20T13:06:47;32.20;59.60
18105;DHT22;9179;50.968;3.134;2022-08-20T13:09:16;32.90;58.20
18105;DHT22;9179;50.968;3.134;2022-08-20T13:11:43;33.60;57.30
18105;DHT22;9179;50.968;3.134;2022-08-20T13:14:10;34.60;56.40
18105;DHT22;9179;50.968;3.134;2022-08-20T13:16:37;34.10;56.20
18105;DHT22;9179;50.968;3.134;2022-08-20T13:19:05;34.00;56.50
18105;DHT22;9179;50.968;3.134;2022-08-20T13:21:32;34.30;56.40
18105;DHT22;9179;50.968;3.134;2022-08-20T13:23:59;35.50;56.00
18105;DHT22;9179;50.968;3.134;2022-08-20T13:26:26;36.40;54.00
18105;DHT22;9179;50.968;3.134;2022-08-20T13:28:53;35.60;53.60
18105;DHT22;9179;50.968;3.134;2022-08-20T13:31:20;34.70;54.40
18105;DHT22;9179;50.968;3.134;2022-08-20T13:33:47;34.80;54.50
18105;DHT22;9179;50.968;3.134;2022-08-20T13:36:15;35.50;53.60
18105;DHT22;9179;50.968;3.134;2022-08-20T13:38:42;36.40;53.00
18105;DHT22;9179;50.968;3.134;2022-08-20T13:41:09;37.30;51.60
18105;DHT22;9179;50.968;3.134;2022-08-20T13:43:36;37.70;50.50
18105;DHT22;9179;50.968;3.134;2022-08-20T13:46:03;38.60;49.80
18105;DHT22;9179;50.968;3.134;2022-08-20T13:48:31;37.70;50.10
18105;DHT22;9179;50.968;3.134;2022-08-20T13:50:58;35.60;51.40
18105;DHT22;9179;50.968;3.134;2022-08-20T13:53:26;33.00;54.30
18105;DHT22;9179;50.968;3.134;2022-08-20T13:55:53;31.60;55.80
18105;DHT22;9179;50.968;3.134;2022-08-20T13:58:20;30.70;57.50
18105;DHT22;9179;50.968;3.134;2022-08-20T14:00:47;30.00;58.60
18105;DHT22;9179;50.968;3.134;2022-08-20T14:03:14;29.40;59.90
18105;DHT22;9179;50.968;3.134;2022-08-20T14:05:42;29.10;60.60
18105;DHT22;9179;50.968;3.134;2022-08-20T14:08:11;29.20;61.00
18105;DHT22;9179;50.968;3.134;2022-08-20T14:10:40;29.60;61.40
18105;DHT22;9179;50.968;3.134;2022-08-20T14:13:07;30.60;61.00
18105;DHT22;9179;50.968;3.134;2022-08-20T14:15:35;33.60;57.90
18105;DHT22;9179;50.968;3.134;2022-08-20T14:18:02;35.70;55.30
18105;DHT22;9179;50.968;3.134;2022-08-20T14:20:31;36.70;53.80
18105;DHT22;9179;50.968;3.134;2022-08-20T14:22:59;38.00;52.50
18105;DHT22;9179;50.968;3.134;2022-08-20T14:25:27;36.30;52.20
18105;DHT22;9179;50.968;3.134;2022-08-20T14:27:56;33.30;54.80
18105;DHT22;9179;50.968;3.134;2022-08-20T14:30:25;31.10;57.60
18105;DHT22;9179;50.968;3.134;2022-08-20T14:32:52;30.00;59.60
18105;DHT22;9179;50.968;3.134;2022-08-20T14:35:20;29.80;60.50
18105;DHT22;9179;50.968;3.134;2022-08-20T14:37:49;31.60;59.60
18105;DHT22;9179;50.968;3.134;2022-08-20T14:40:19;32.70;57.30
18105;DHT22;9179;50.968;3.134;2022-08-20T14:42:46;32.00;58.20
18105;DHT22;9179;50.968;3.134;2022-08-20T14:45:16;34.30;56.90
18105;DHT22;9179;50.968;3.134;2022-08-20T14:47:45;35.70;53.90
18105;DHT22;9179;50.968;3.134;2022-08-20T14:50:15;35.10;54.50
18105;DHT22;9179;50.968;3.134;2022-08-20T14:52:43;33.80;55.80
18105;DHT22;9179;50.968;3.134;2022-08-20T14:55:11;32.60;56.90
18105;DHT22;9179;50.968;3.134;2022-08-20T14:57:39;31.60;57.80
18105;DHT22;9179;50.968;3.134;2022-08-20T15:00:09;31.60;58.30
18105;DHT22;9179;50.968;3.134;2022-08-20T15:02:38;31.10;58.80
18105;DHT22;9179;50.968;3.134;2022-08-20T15:05:06;31.30;59.20
18105;DHT22;9179;50.968;3.134;2022-08-20T15:07:37;35.10;55.80
18105;DHT22;9179;50.968;3.134;2022-08-20T15:10:06;39.10;51.10
18105;DHT22;9179;50.968;3.134;2022-08-20T15:12:34;40.50;48.80
18105;DHT22;9179;50.968;3.134;2022-08-20T15:15:01;36.70;50.70
18105;DHT22;9179;50.968;3.134;2022-08-20T15:17:29;33.50;53.90
18105;DHT22;9179;50.968;3.134;2022-08-20T15:20:00;32.30;55.90
18105;DHT22;9179;50.968;3.134;2022-08-20T15:22:29;31.40;57.40
18105;DHT22;9179;50.968;3.134;2022-08-20T15:24:56;31.00;58.20
18105;DHT22;9179;50.968;3.134;2022-08-20T15:27:24;30.90;58.50
18105;DHT22;9179;50.968;3.134;2022-08-20T15:29:52;32.10;57.30
18105;DHT22;9179;50.968;3.134;2022-08-20T15:32:20;31.90;57.50
18105;DHT22;9179;50.968;3.134;2022-08-20T15:34:47;31.50;58.00
18105;DHT22;9179;50.968;3.134;2022-08-20T15:37:18;30.70;58.90
18105;DHT22;9179;50.968;3.134;2022-08-20T15:39:46;29.90;59.80
18105;DHT22;9179;50.968;3.134;2022-08-20T15:42:13;29.00;61.50
18105;DHT22;9179;50.968;3.134;2022-08-20T15:44:42;28.60;63.20
18105;DHT22;9179;50.968;3.134;2022-08-20T15:47:21;28.60;63.20
18105;DHT22;9179;50.968;3.134;2022-08-20T15:49:52;28.70;63.10
18105;DHT22;9179;50.968;3.134;2022-08-20T15:52:21;33.40;57.60